createdAt,value
2018-06-01T00:01:53.573Z,76.04
2018-06-01T00:04:21.121Z,76.70
2018-06-01T00:06:48.632Z,75.92
2018-06-01T00:09:18.381Z,76.29
2018-06-01T00:11:45.893Z,76.67
2018-06-01T00:14:13.420Z,75.87
2018-06-01T00:16:41.886Z,76.22
2018-06-01T00:19:09.403Z,75.76
2018-06-01T00:21:37.184Z,76.27
2018-06-01T00:24:04.708Z,76.69
2018-06-01T00:26:32.230Z,77.70
2018-06-01T00:28:59.773Z,77.62
2018-06-01T00:31:27.301Z,77.08
2018-06-01T00:33:55.093Z,77.25
2018-06-01T00:36:22.609Z,75.95
2018-06-01T00:38:50.122Z,75.58
2018-06-01T00:41:17.776Z,75.42
2018-06-01T00:43:45.432Z,75.55
2018-06-01T00:46:13.194Z,76.01
2018-06-01T00:48:40.710Z,75.41
2018-06-01T00:51:08.221Z,74.90
2018-06-01T00:53:35.757Z,75.51
2018-06-01T00:56:03.279Z,74.96
2018-06-01T00:58:31.108Z,74.80
2018-06-01T01:00:58.639Z,74.89
2018-06-01T01:03:26.164Z,75.35
2018-06-01T01:05:53.705Z,75.55
2018-06-01T01:08:21.223Z,75.38
2018-06-01T01:10:48.788Z,75.12
2018-06-01T01:13:16.304Z,75.45
2018-06-01T01:15:43.829Z,74.77
2018-06-01T01:18:11.372Z,74.65
2018-06-01T01:20:38.880Z,74.15
2018-06-01T01:23:06.441Z,74.84
2018-06-01T01:25:33.972Z,74.22
2018-06-01T01:28:01.490Z,73.71
2018-06-01T01:30:29.048Z,73.79
2018-06-01T01:32:56.567Z,74.02
2018-06-01T01:35:24.283Z,74.69
2018-06-01T01:37:51.804Z,74.71
2018-06-01T01:40:19.321Z,75.66
2018-06-01T01:42:47.805Z,75.87
2018-06-01T01:45:15.321Z,75.62
2018-06-01T01:47:42.864Z,76.47
2018-06-01T01:50:10.378Z,76.35
2018-06-01T01:52:37.900Z,77.57
2018-06-01T01:55:05.441Z,77.85
2018-06-01T01:57:32.957Z,77.55
2018-06-01T02:00:00.695Z,78.16
2018-06-01T02:02:28.211Z,77.62
2018-06-01T02:04:55.731Z,76.94
2018-06-01T02:07:23.333Z,77.88
2018-06-01T02:09:50.849Z,78.31
2018-06-01T02:12:18.692Z,77.49
2018-06-01T02:14:46.210Z,76.97
2018-06-01T02:17:13.728Z,76.28
2018-06-01T02:19:41.269Z,75.68
2018-06-01T02:22:08.797Z,75.79
2018-06-01T02:24:37.739Z,75.66
2018-06-01T02:27:05.254Z,75.04
2018-06-01T02:29:32.773Z,76.21
2018-06-01T02:32:01.064Z,75.35
2018-06-01T02:34:28.926Z,75.29
2018-06-01T02:36:56.521Z,75.21
2018-06-01T02:39:24.057Z,75.10
2018-06-01T02:41:51.576Z,75.09
2018-06-01T02:44:19.131Z,75.64
2018-06-01T02:46:46.649Z,76.32
2018-06-01T02:49:14.351Z,76.83
2018-06-01T02:51:41.865Z,75.52
2018-06-01T02:54:09.389Z,76.43
2018-06-01T02:56:36.931Z,76.09
2018-06-01T02:59:04.449Z,75.54
2018-06-01T03:01:32.333Z,76.13
2018-06-01T03:03:59.849Z,76.21
2018-06-01T03:06:29.305Z,76.79
2018-06-01T03:08:56.840Z,76.41
2018-06-01T03:11:24.357Z,75.49
2018-06-01T03:13:51.931Z,75.71
2018-06-01T03:16:19.444Z,74.99
2018-06-01T03:18:46.956Z,75.03
2018-06-01T03:21:14.505Z,75.05
2018-06-01T03:23:42.130Z,75.07
2018-06-01T03:26:09.702Z,74.82
2018-06-01T03:28:37.219Z,74.91
2018-06-01T03:31:04.734Z,74.96
2018-06-01T03:33:32.273Z,75.70
2018-06-01T03:35:59.780Z,75.80
2018-06-01T03:38:27.472Z,75.23
2018-06-01T03:40:54.995Z,75.65
2018-06-01T03:43:22.537Z,75.28
2018-06-01T03:45:50.081Z,74.79
2018-06-01T03:48:17.596Z,75.05
2018-06-01T03:50:45.373Z,75.47
2018-06-01T03:53:12.901Z,75.81
2018-06-01T03:55:40.424Z,75.36
2018-06-01T03:58:07.968Z,74.90
2018-06-01T04:00:35.526Z,75.94
2018-06-01T04:03:03.080Z,75.88
2018-06-01T04:05:30.601Z,76.42
2018-06-01T04:07:58.132Z,76.23
2018-06-01T04:10:25.691Z,75.08
2018-06-01T04:12:53.204Z,74.88
2018-06-01T04:15:20.744Z,74.81
2018-06-01T04:17:48.269Z,75.22
2018-06-01T04:20:15.888Z,75.49
2018-06-01T04:22:43.484Z,74.77
2018-06-01T04:25:10.992Z,75.33
2018-06-01T04:27:38.576Z,75.15
2018-06-01T04:30:06.074Z,74.54
2018-06-01T04:32:33.593Z,75.02
2018-06-01T04:35:01.664Z,74.56
2018-06-01T04:37:29.685Z,73.85
2018-06-01T04:39:57.396Z,74.02
2018-06-01T04:42:24.913Z,74.72
2018-06-01T04:44:52.449Z,73.95
2018-06-01T04:47:19.985Z,74.39
2018-06-01T04:49:47.502Z,74.08
2018-06-01T04:52:15.060Z,73.84
2018-06-01T04:54:42.701Z,75.12
2018-06-01T04:57:10.232Z,74.82
2018-06-01T04:59:37.776Z,74.69
2018-06-01T05:02:05.841Z,72.79
2018-06-01T05:04:33.399Z,72.35
2018-06-01T05:07:00.913Z,72.98
2018-06-01T05:09:28.428Z,72.51
2018-06-01T05:11:55.994Z,72.40
2018-06-01T05:14:23.512Z,71.55
2018-06-01T05:16:51.068Z,70.82
2018-06-01T05:19:18.595Z,70.41
2018-06-01T05:21:46.111Z,70.90
2018-06-01T05:24:13.669Z,69.52
2018-06-01T05:26:41.183Z,69.26
2018-06-01T05:29:08.817Z,69.45
2018-06-01T05:31:36.349Z,68.72
2018-06-01T05:34:03.860Z,68.78
2018-06-01T05:36:31.408Z,68.62
2018-06-01T05:38:58.933Z,68.95
2018-06-01T05:41:26.669Z,68.75
2018-06-01T05:43:54.193Z,68.49
2018-06-01T05:46:21.705Z,67.78
2018-06-01T05:48:49.253Z,67.46
2018-06-01T05:51:16.772Z,67.93
2018-06-01T05:53:44.324Z,67.82
2018-06-01T05:56:11.838Z,66.99
2018-06-01T05:58:39.357Z,65.86
2018-06-01T06:01:06.904Z,65.52
2018-06-01T06:03:34.422Z,65.27
2018-06-01T06:06:02.464Z,64.76
2018-06-01T06:08:29.982Z,65.93
2018-06-01T06:10:57.512Z,65.15
2018-06-01T06:13:25.121Z,65.62
2018-06-01T06:15:52.610Z,64.73
2018-06-01T06:18:20.198Z,64.25
2018-06-01T06:20:47.717Z,63.19
2018-06-01T06:23:15.229Z,63.97
2018-06-01T06:25:42.875Z,64.60
2018-06-01T06:28:11.442Z,64.52
2018-06-01T06:30:39.188Z,63.38
2018-06-01T06:33:06.708Z,63.45
2018-06-01T06:35:34.231Z,62.39
2018-06-01T06:38:01.824Z,61.40
2018-06-01T06:40:29.344Z,60.76
2018-06-01T06:42:57.102Z,60.15
2018-06-01T06:45:24.628Z,61.03
2018-06-01T06:47:52.155Z,59.94
2018-06-01T06:50:19.701Z,59.04
2018-06-01T06:52:47.225Z,58.02
2018-06-01T06:55:14.855Z,56.34
2018-06-01T06:57:42.329Z,53.89
2018-06-01T07:00:09.868Z,52.88
2018-06-01T07:02:37.426Z,54.11
2018-06-01T07:05:04.964Z,53.80
2018-06-01T07:07:32.692Z,54.19
2018-06-01T07:10:00.208Z,52.92
2018-06-01T07:12:27.805Z,52.90
2018-06-01T07:14:55.360Z,51.88
2018-06-01T07:17:22.887Z,50.35
2018-06-01T07:19:50.792Z,49.94
2018-06-01T07:22:18.318Z,47.78
2018-06-01T07:24:45.840Z,45.78
2018-06-01T07:27:13.401Z,45.85
2018-06-01T07:29:40.923Z,46.67
2018-06-01T07:32:08.677Z,44.76
2018-06-01T07:34:36.188Z,46.52
2018-06-01T07:37:03.718Z,46.88
2018-06-01T07:39:31.277Z,47.60
2018-06-01T07:41:58.785Z,48.37
2018-06-01T07:44:26.581Z,48.00
2018-06-01T07:46:54.169Z,47.86
2018-06-01T07:49:21.647Z,46.27
2018-06-01T07:51:49.188Z,47.09
2018-06-01T07:54:16.714Z,46.08
2018-06-01T07:56:44.397Z,43.07
2018-06-01T07:59:11.917Z,41.95
2018-06-01T08:01:39.437Z,42.29
2018-06-01T08:04:06.990Z,45.20
2018-06-01T08:06:34.518Z,43.99
2018-06-01T08:09:02.390Z,44.50
2018-06-01T08:11:29.962Z,42.34
2018-06-01T08:13:57.481Z,41.89
2018-06-01T08:16:25.033Z,39.63
2018-06-01T08:18:52.553Z,39.83
2018-06-01T08:21:20.307Z,42.29
2018-06-01T08:23:47.829Z,40.57
2018-06-01T08:26:16.032Z,42.37
2018-06-01T08:28:43.610Z,42.74
2018-06-01T08:31:11.150Z,41.75
2018-06-01T08:33:40.457Z,39.08
2018-06-01T08:36:09.026Z,38.53
2018-06-01T08:38:36.538Z,39.76
2018-06-01T08:41:04.088Z,38.36
2018-06-01T08:43:31.600Z,37.63
2018-06-01T08:45:59.349Z,38.26
2018-06-01T08:48:26.934Z,36.52
2018-06-01T08:50:54.699Z,35.54
2018-06-01T08:53:22.320Z,35.91
2018-06-01T08:55:49.860Z,35.13
2018-06-01T08:58:17.577Z,34.00
2018-06-01T09:00:45.092Z,33.64
2018-06-01T09:03:12.615Z,32.60
2018-06-01T09:05:40.353Z,33.80
2018-06-01T09:08:07.882Z,33.56
2018-06-01T09:10:35.671Z,33.61
2018-06-01T09:13:03.278Z,35.88
2018-06-01T09:15:30.796Z,38.33
2018-06-01T09:17:58.353Z,37.95
2018-06-01T09:20:26.000Z,37.66
2018-06-01T09:22:53.628Z,38.79
2018-06-01T09:25:21.146Z,39.26
2018-06-01T09:27:48.764Z,41.04
2018-06-01T09:30:16.339Z,36.61
2018-06-01T09:32:44.009Z,34.84
2018-06-01T09:35:11.772Z,30.61
2018-06-01T09:37:39.302Z,28.36
2018-06-01T09:40:06.829Z,27.58
2018-06-01T09:42:34.369Z,24.79
2018-06-01T09:45:01.888Z,24.94
2018-06-01T09:47:29.483Z,23.58
2018-06-01T09:49:57.001Z,22.63
2018-06-01T09:52:24.522Z,22.78
2018-06-01T09:55:03.325Z,20.21
2018-06-01T09:57:30.847Z,19.25
2018-06-01T09:59:58.413Z,20.46
2018-06-01T10:02:25.935Z,22.28
2018-06-01T10:04:53.460Z,23.09
2018-06-01T10:07:21.014Z,24.53
2018-06-01T10:09:54.146Z,22.86
2018-06-01T10:12:21.691Z,24.18
2018-06-01T10:14:49.204Z,28.40
2018-06-01T10:17:16.842Z,26.91
2018-06-01T10:19:44.504Z,28.75
2018-06-01T10:22:12.082Z,28.39
2018-06-01T10:24:39.616Z,28.94
2018-06-01T10:27:07.137Z,28.39
2018-06-01T10:29:34.870Z,30.20
2018-06-01T10:32:02.386Z,31.99
2018-06-01T10:34:29.905Z,32.39
2018-06-01T10:36:57.462Z,32.58
2018-06-01T10:39:25.015Z,28.44
2018-06-01T10:41:52.665Z,28.48
2018-06-01T10:44:20.181Z,27.25
2018-06-01T10:46:47.900Z,28.21
2018-06-01T10:49:15.456Z,29.45
2018-06-01T10:51:42.997Z,31.92
2018-06-01T10:54:10.668Z,34.13
2018-06-01T10:56:38.180Z,35.45
2018-06-01T10:59:05.696Z,35.59
2018-06-01T11:01:33.332Z,34.74
2018-06-01T11:04:00.863Z,33.31
2018-06-01T11:06:28.429Z,34.10
2018-06-01T11:08:55.965Z,33.69
2018-06-01T11:11:23.505Z,34.42
2018-06-01T11:13:51.153Z,34.75
2018-06-01T11:16:18.721Z,35.40
2018-06-01T11:18:46.378Z,36.69
2018-06-01T11:21:13.992Z,36.90
2018-06-01T11:23:41.536Z,37.76
2018-06-01T11:26:09.125Z,37.23
2018-06-01T11:28:36.653Z,36.29
2018-06-01T11:31:04.214Z,29.65
2018-06-01T11:33:31.753Z,26.63
2018-06-01T11:35:59.276Z,23.24
2018-06-01T11:38:26.871Z,25.71
2018-06-01T11:40:54.401Z,27.88
2018-06-01T11:43:22.207Z,30.15
2018-06-01T11:45:49.729Z,29.89
2018-06-01T11:48:17.268Z,32.75
2018-06-01T11:50:44.809Z,31.94
2018-06-01T11:53:12.331Z,32.12
2018-06-01T11:55:39.898Z,35.03
2018-06-01T11:58:07.460Z,34.23
2018-06-01T12:00:35.610Z,35.72
2018-06-01T12:03:03.166Z,34.71
2018-06-01T12:05:30.710Z,30.95
2018-06-01T12:07:58.381Z,25.08
2018-06-01T12:10:26.114Z,23.21
2018-06-01T12:12:53.636Z,24.66
2018-06-01T12:15:21.183Z,24.73
2018-06-01T12:17:48.977Z,26.78
2018-06-01T12:20:16.896Z,28.83
2018-06-01T12:22:44.416Z,28.51
2018-06-01T12:25:11.974Z,28.91
2018-06-01T12:27:39.524Z,29.30
2018-06-01T12:30:07.240Z,27.92
2018-06-01T12:32:34.805Z,24.71
2018-06-01T12:35:02.334Z,20.18
2018-06-01T12:37:29.903Z,18.55
2018-06-01T12:39:57.427Z,16.52
2018-06-01T12:42:24.944Z,16.86
2018-06-01T12:44:52.806Z,19.10
2018-06-01T12:47:20.406Z,21.82
2018-06-01T12:49:47.924Z,23.51
2018-06-01T12:52:15.691Z,23.56
2018-06-01T12:54:43.237Z,20.74
2018-06-01T12:57:11.128Z,19.33
2018-06-01T12:59:38.662Z,18.48
2018-06-01T13:02:06.259Z,18.11
2018-06-01T13:04:33.971Z,18.41
2018-06-01T13:07:01.642Z,17.67
2018-06-01T13:09:29.527Z,18.73
2018-06-01T13:11:57.113Z,18.94
2018-06-01T13:14:24.716Z,15.47
2018-06-01T13:16:52.413Z,17.74
2018-06-01T13:19:19.980Z,18.84
2018-06-01T13:21:47.546Z,16.79
2018-06-01T13:24:15.082Z,16.94
2018-06-01T13:26:42.623Z,16.47
2018-06-01T13:29:10.175Z,15.74
2018-06-01T13:31:37.701Z,14.87
2018-06-01T13:34:05.369Z,13.94
2018-06-01T13:36:32.889Z,16.77
2018-06-01T13:39:00.400Z,21.91
2018-06-01T13:41:27.956Z,22.63
2018-06-01T13:43:55.501Z,26.38
2018-06-01T13:46:23.021Z,26.55
2018-06-01T13:48:50.584Z,23.76
2018-06-01T13:51:18.096Z,21.84
2018-06-01T13:53:45.616Z,20.02
2018-06-01T13:56:13.443Z,18.66
2018-06-01T13:58:40.981Z,18.97
2018-06-01T14:01:08.613Z,19.56
2018-06-01T14:03:36.620Z,20.00
2018-06-01T14:06:04.561Z,23.88
2018-06-01T14:08:32.137Z,26.73
2018-06-01T14:10:59.709Z,29.03
2018-06-01T14:13:27.215Z,29.76
2018-06-01T14:15:54.738Z,30.06
2018-06-01T14:18:22.373Z,29.53
2018-06-01T14:20:49.914Z,25.99
2018-06-01T14:23:17.743Z,25.01
2018-06-01T14:25:45.814Z,24.10
2018-06-01T14:28:13.364Z,22.72
2018-06-01T14:30:40.901Z,22.25
2018-06-01T14:33:08.490Z,21.99
2018-06-01T14:35:36.003Z,22.57
2018-06-01T14:38:03.527Z,25.77
2018-06-01T14:40:31.380Z,27.84
2018-06-01T14:42:58.905Z,29.72
2018-06-01T14:45:26.428Z,30.63
2018-06-01T14:47:54.141Z,32.25
2018-06-01T14:50:21.669Z,33.50
2018-06-01T14:52:49.181Z,33.97
2018-06-01T14:55:16.729Z,35.25
2018-06-01T14:57:44.253Z,31.82
2018-06-01T15:00:11.789Z,31.15
2018-06-01T15:02:39.332Z,29.25
2018-06-01T15:05:06.865Z,29.26
2018-06-01T15:07:34.384Z,29.28
2018-06-01T15:10:02.174Z,30.07
2018-06-01T15:12:29.703Z,30.28
2018-06-01T15:14:57.257Z,30.58
2018-06-01T15:17:24.866Z,31.18
2018-06-01T15:19:52.426Z,32.12
2018-06-01T15:22:19.951Z,33.60
2018-06-01T15:24:47.503Z,34.26
2018-06-01T15:27:15.039Z,35.51
2018-06-01T15:29:42.575Z,35.43
2018-06-01T15:32:10.630Z,35.60
2018-06-01T15:34:38.192Z,35.65
2018-06-01T15:37:05.712Z,35.27
2018-06-01T15:39:33.252Z,35.60
2018-06-01T15:42:00.801Z,34.98
2018-06-01T15:44:28.776Z,34.33
2018-06-01T15:46:56.355Z,33.29
2018-06-01T15:49:23.891Z,35.19
2018-06-01T15:51:51.419Z,34.56
2018-06-01T15:54:18.966Z,34.48
2018-06-01T15:56:46.533Z,34.55
2018-06-01T15:59:14.048Z,33.60
2018-06-01T16:01:41.589Z,32.66
2018-06-01T16:04:09.106Z,33.82
2018-06-01T16:06:36.628Z,33.74
2018-06-01T16:09:04.203Z,32.28
2018-06-01T16:11:31.734Z,31.71
2018-06-01T16:13:59.266Z,33.47
2018-06-01T16:16:26.977Z,33.24
2018-06-01T16:18:54.776Z,34.36
2018-06-01T16:21:22.313Z,34.96
2018-06-01T16:23:49.880Z,35.82
2018-06-01T16:26:17.425Z,34.67
2018-06-01T16:28:44.949Z,35.38
2018-06-01T16:31:12.502Z,35.60
2018-06-01T16:33:40.889Z,36.44
2018-06-01T16:36:08.461Z,36.41
2018-06-01T16:38:36.157Z,36.95
2018-06-01T16:41:03.709Z,37.49
2018-06-01T16:43:31.318Z,38.80
2018-06-01T16:45:58.878Z,38.87
2018-06-01T16:48:26.408Z,39.49
2018-06-01T16:50:53.975Z,39.80
2018-06-01T16:53:22.548Z,39.16
2018-06-01T16:55:50.415Z,38.11
2018-06-01T16:58:18.012Z,39.25
2018-06-01T17:00:45.614Z,40.00
2018-06-01T17:03:13.707Z,40.37
2018-06-01T17:05:41.276Z,40.15
2018-06-01T17:08:08.834Z,40.85
2018-06-01T17:10:37.001Z,40.83
2018-06-01T17:13:04.572Z,41.11
2018-06-01T17:15:32.380Z,41.08
2018-06-01T17:17:59.989Z,41.13
2018-06-01T17:20:28.979Z,40.90
2018-06-01T17:22:56.497Z,41.41
2018-06-01T17:25:24.101Z,41.74
2018-06-01T17:27:51.673Z,42.12
2018-06-01T17:30:19.191Z,43.26
2018-06-01T17:32:47.139Z,43.00
2018-06-01T17:35:14.751Z,43.19
2018-06-01T17:37:42.406Z,43.54
2018-06-01T17:40:10.170Z,44.00
2018-06-01T17:42:37.833Z,44.70
2018-06-01T17:45:05.786Z,45.08
2018-06-01T17:47:33.305Z,45.81
2018-06-01T17:50:00.835Z,45.92
2018-06-01T17:52:28.584Z,46.22
2018-06-01T17:54:56.243Z,46.60
2018-06-01T17:57:23.892Z,46.82
2018-06-01T17:59:51.412Z,47.41
2018-06-01T18:02:18.953Z,47.29
2018-06-01T18:04:46.517Z,47.11
2018-06-01T18:07:14.246Z,46.32
2018-06-01T18:09:41.825Z,46.73
2018-06-01T18:12:09.397Z,46.47
2018-06-01T18:14:37.130Z,46.43
2018-06-01T18:17:04.688Z,46.23
2018-06-01T18:19:32.554Z,46.13
2018-06-01T18:22:00.607Z,46.03
2018-06-01T18:24:28.164Z,46.95
2018-06-01T18:26:55.681Z,47.02
2018-06-01T18:29:23.236Z,47.26
2018-06-01T18:31:50.861Z,46.81
2018-06-01T18:34:18.714Z,47.06
2018-06-01T18:36:46.404Z,47.30
2018-06-01T18:39:13.912Z,46.86
2018-06-01T18:41:41.700Z,46.11
2018-06-01T18:44:09.216Z,45.96
2018-06-01T18:46:36.777Z,46.73
2018-06-01T18:49:04.299Z,46.34
2018-06-01T18:51:31.908Z,46.00
2018-06-01T18:53:59.710Z,45.83
2018-06-01T18:56:27.271Z,45.56
2018-06-01T18:58:54.848Z,45.81
2018-06-01T19:01:22.599Z,46.02
2018-06-01T19:03:50.159Z,46.41
2018-06-01T19:06:18.025Z,47.90
2018-06-01T19:08:46.442Z,48.34
2018-06-01T19:11:14.588Z,48.67
2018-06-01T19:13:42.546Z,48.72
2018-06-01T19:16:10.267Z,48.88
2018-06-01T19:18:38.134Z,49.18
2018-06-01T19:21:05.945Z,49.33
2018-06-01T19:23:33.668Z,49.92
2018-06-01T19:26:01.482Z,50.03
2018-06-01T19:28:29.040Z,50.68
2018-06-01T19:30:57.046Z,50.52
2018-06-01T19:33:24.601Z,51.17
2018-06-01T19:35:53.039Z,51.35
2018-06-01T19:38:20.904Z,51.93
2018-06-01T19:40:48.679Z,51.65
2018-06-01T19:43:17.975Z,52.27
2018-06-01T19:45:45.835Z,52.92
2018-06-01T19:48:13.967Z,53.37
2018-06-01T19:50:41.977Z,54.45
2018-06-01T19:53:09.845Z,54.39
2018-06-01T19:55:37.608Z,54.58
2018-06-01T19:58:06.385Z,54.72
2018-06-01T20:00:34.403Z,55.43
2018-06-01T20:03:02.130Z,55.67
2018-06-01T20:05:30.100Z,55.77
2018-06-01T20:07:57.956Z,56.39
2018-06-01T20:10:26.037Z,56.43
2018-06-01T20:12:54.223Z,56.77
2018-06-01T20:15:21.975Z,56.88
2018-06-01T20:17:49.723Z,56.53
2018-06-01T20:20:17.328Z,57.53
2018-06-01T20:22:44.962Z,57.89
2018-06-01T20:25:12.709Z,57.70
2018-06-01T20:27:40.584Z,57.49
2018-06-01T20:30:08.969Z,57.51
2018-06-01T20:32:36.735Z,57.97
2018-06-01T20:35:04.499Z,57.47
2018-06-01T20:37:32.570Z,58.23
2018-06-01T20:40:00.560Z,58.17
2018-06-01T20:42:28.417Z,58.05
2018-06-01T20:44:56.162Z,59.15
2018-06-01T20:47:23.693Z,58.65
2018-06-01T20:49:51.392Z,59.01
2018-06-01T20:52:19.155Z,58.76
2018-06-01T20:54:46.820Z,58.72
2018-06-01T20:57:14.575Z,59.15
2018-06-01T20:59:42.169Z,58.91
2018-06-01T21:02:10.011Z,59.10
2018-06-01T21:04:37.975Z,59.09
2018-06-01T21:07:06.765Z,59.40
2018-06-01T21:09:34.426Z,59.98
2018-06-01T21:12:02.069Z,59.96
2018-06-01T21:14:29.956Z,60.04
2018-06-01T21:16:57.822Z,59.77
2018-06-01T21:19:25.686Z,59.99
2018-06-01T21:21:53.546Z,59.89
2018-06-01T21:24:21.219Z,60.06
2018-06-01T21:26:49.364Z,60.13
2018-06-01T21:29:17.153Z,60.44
2018-06-01T21:31:45.023Z,60.51
2018-06-01T21:34:12.989Z,61.03
2018-06-01T21:36:41.124Z,60.63
2018-06-01T21:39:09.440Z,61.11
2018-06-01T21:41:37.205Z,61.71
2018-06-01T21:44:04.865Z,61.89
2018-06-01T21:46:32.475Z,61.85
2018-06-01T21:49:00.039Z,62.04
2018-06-01T21:51:28.056Z,62.40
2018-06-01T21:53:55.630Z,63.06
2018-06-01T21:56:23.221Z,62.86
2018-06-01T21:58:50.929Z,63.02
2018-06-01T22:01:18.459Z,63.35
2018-06-01T22:03:46.178Z,62.90
2018-06-01T22:06:13.715Z,62.89
2018-06-01T22:08:41.302Z,63.25
2018-06-01T22:11:08.868Z,63.35
2018-06-01T22:13:36.398Z,63.11
2018-06-01T22:16:03.976Z,63.56
2018-06-01T22:18:31.506Z,63.44
2018-06-01T22:20:59.020Z,63.60
2018-06-01T22:23:26.569Z,63.86
2018-06-01T22:25:54.176Z,63.59
2018-06-01T22:28:21.936Z,63.06
2018-06-01T22:30:49.472Z,62.97
2018-06-01T22:33:17.383Z,63.27
2018-06-01T22:35:44.944Z,63.51
2018-06-01T22:38:12.470Z,63.78
2018-06-01T22:40:40.025Z,63.36
2018-06-01T22:43:07.569Z,63.68
2018-06-01T22:45:35.126Z,63.47
2018-06-01T22:48:02.672Z,63.31
2018-06-01T22:50:30.304Z,63.91
2018-06-01T22:52:57.946Z,64.03
2018-06-01T22:55:25.426Z,64.22
2018-06-01T22:57:52.988Z,64.47
2018-06-01T23:00:21.886Z,64.69
2018-06-01T23:02:49.397Z,64.77
2018-06-01T23:05:16.958Z,64.97
2018-06-01T23:07:44.502Z,64.77
2018-06-01T23:10:12.032Z,64.94
2018-06-01T23:12:39.574Z,65.04
2018-06-01T23:15:07.093Z,65.11
2018-06-01T23:17:34.741Z,65.25
2018-06-01T23:20:02.276Z,65.55
2018-06-01T23:22:29.799Z,65.74
2018-06-01T23:24:57.345Z,65.91
2018-06-01T23:27:24.866Z,65.82
2018-06-01T23:29:53.290Z,65.46
2018-06-01T23:32:20.882Z,65.40
2018-06-01T23:34:48.404Z,65.20
2018-06-01T23:37:15.945Z,64.96
2018-06-01T23:39:43.472Z,65.11
2018-06-01T23:42:11.122Z,65.55
2018-06-01T23:44:38.637Z,65.73
2018-06-01T23:47:06.171Z,66.56
2018-06-01T23:49:33.729Z,65.26
2018-06-01T23:52:01.261Z,65.42
2018-06-01T23:54:28.965Z,65.02
2018-06-01T23:56:56.489Z,65.93
2018-06-01T23:59:24.024Z,67.20
